Time;durP1;ratioP1;P1;durP2;ratioP2;P2;SDS_P1;SDS_P2;PMS_P1;PMS_P2;Temp;Humidity;BMP_temperature;BMP_pressure;BME280_temperature;BME280_humidity;BME280_pressure;Samples;Min_cycle;Max_cycle;Signal;HPM_P1;HPM_P2
2022/03/22 00:01:21;;;;;;;16.17;13.32;;;;;;;10.90;37.56;101713.44;10354100;28;20052;-60
2022/03/22 00:06:23;;;;;;;14.10;12.70;;;;;;;10.83;37.73;101707.63;10356189;28;20053;-59
2022/03/22 00:11:24;;;;;;;14.85;13.10;;;;;;;10.77;37.59;101705.31;10350927;28;20060;-60
2022/03/22 00:16:26;;;;;;;13.48;12.15;;;;;;;10.70;37.33;101704.81;10350689;28;20055;-60
2022/03/22 00:21:47;;;;;;;14.32;12.20;;;;;;;10.47;37.99;101692.81;10352944;28;20417;-60
2022/03/22 00:26:49;;;;;;;16.33;13.13;;;;;;;10.46;37.63;101715.06;10354720;28;20046;-61
2022/03/22 00:31:50;;;;;;;14.80;12.55;;;;;;;10.37;38.12;101702.28;10355933;28;20053;-60
2022/03/22 00:36:53;;;;;;;16.08;13.43;;;;;;;10.29;38.60;101708.00;10351801;28;20061;-60
2022/03/22 00:41:54;;;;;;;15.10;13.32;;;;;;;10.27;38.26;101705.44;10352869;28;20548;-60
2022/03/22 00:46:55;;;;;;;14.50;13.10;;;;;;;10.19;38.74;101707.69;10353236;28;20054;-62
2022/03/22 00:51:59;;;;;;;14.82;12.82;;;;;;;10.10;37.96;101708.16;10352803;28;20151;-61
2022/03/22 00:57:00;;;;;;;14.63;13.13;;;;;;;9.90;38.09;101710.13;10353585;28;20056;-61
2022/03/22 01:02:02;;;;;;;14.63;13.07;;;;;;;9.86;38.62;101721.00;10354004;28;20115;-60
2022/03/22 01:07:04;;;;;;;15.13;12.27;;;;;;;9.82;38.72;101709.69;10354598;28;20049;-59
2022/03/22 01:12:06;;;;;;;14.25;12.73;;;;;;;9.95;38.70;101722.31;10350971;28;20128;-60
2022/03/22 01:17:07;;;;;;;14.43;12.93;;;;;;;9.84;39.14;101723.75;10351929;28;20046;-59
2022/03/22 01:22:08;;;;;;;14.98;13.45;;;;;;;9.75;39.51;101713.63;10353255;28;20922;-60
2022/03/22 01:27:10;;;;;;;15.10;12.57;;;;;;;9.77;39.76;101695.78;10351526;28;20432;-60
2022/03/22 01:32:12;;;;;;;14.30;12.80;;;;;;;9.80;39.54;101706.25;10349680;28;20070;-61
2022/03/22 01:37:13;;;;;;;15.20;13.65;;;;;;;9.57;40.30;101682.72;10353417;28;20054;-59
2022/03/22 01:42:15;;;;;;;15.25;13.75;;;;;;;9.60;40.91;101699.34;10348023;28;20049;-60
2022/03/22 01:47:18;;;;;;;16.98;14.43;;;;;;;9.64;41.18;101694.75;10350092;28;20145;-60
2022/03/22 01:52:23;;;;;;;16.33;14.63;;;;;;;9.49;41.25;101696.41;10348431;28;20053;-60
2022/03/22 01:57:25;;;;;;;15.55;13.93;;;;;;;9.35;41.42;101691.81;10350295;28;20159;-60
2022/03/22 02:07:47;;;;;;;17.00;15.30;;;;;;;9.00;41.82;101667.94;10349714;28;20046;-60
2022/03/22 02:12:49;;;;;;;16.27;13.93;;;;;;;9.05;41.57;101688.94;10349592;28;20045;-59
2022/03/22 02:17:50;;;;;;;15.77;13.43;;;;;;;9.03;41.26;101670.44;10350954;28;20670;-60
2022/03/22 02:23:03;;;;;;;18.35;15.02;;;;;;;9.18;41.70;101674.94;10360337;28;20076;-59
2022/03/22 02:28:05;;;;;;;14.32;12.82;;;;;;;9.20;41.10;101681.06;10358446;28;20053;-60
2022/03/22 02:33:06;;;;;;;14.40;12.90;;;;;;;8.95;41.71;101670.81;10361886;28;20258;-62
2022/03/22 02:38:08;;;;;;;16.73;13.35;;;;;;;8.84;41.34;101668.72;10359515;28;20042;-62
2022/03/22 02:43:10;;;;;;;15.55;13.93;;;;;;;8.76;42.50;101680.66;10357918;28;20052;-60
2022/03/22 02:48:12;;;;;;;16.73;14.60;;;;;;;8.73;42.46;101679.00;10362033;28;20072;-60
2022/03/22 02:53:13;;;;;;;15.13;13.35;;;;;;;8.53;42.00;101658.78;10358126;28;20049;-59
2022/03/22 02:58:16;;;;;;;14.25;12.75;;;;;;;8.48;42.14;101676.69;10356426;28;20567;-59
2022/03/22 03:03:21;;;;;;;16.15;14.52;;;;;;;8.38;42.29;101668.31;10351725;28;20048;-59
2022/03/22 03:08:26;;;;;;;16.98;14.27;;;;;;;8.29;42.85;101684.69;10356864;28;20053;-61
2022/03/22 03:14:38;;;;;;;17.92;16.15;;;;;;;8.06;43.96;101665.44;10360303;28;20698;-59
2022/03/22 03:18:51;;;;;;;18.17;16.05;;;;;;;8.07;44.56;101676.88;10357761;28;20042;-59
2022/03/22 03:23:52;;;;;;;18.80;16.20;;;;;;;8.08;44.61;101668.84;10355396;28;20415;-60
2022/03/22 03:28:53;;;;;;;19.73;16.83;;;;;;;8.06;44.76;101686.66;10352362;28;20052;-59
2022/03/22 03:33:55;;;;;;;17.98;16.10;;;;;;;7.91;44.98;101692.63;10357249;28;20099;-59
2022/03/22 03:38:56;;;;;;;19.23;17.13;;;;;;;7.74;46.70;101686.31;10355847;28;20145;-59
2022/03/22 03:43:57;;;;;;;18.58;16.63;;;;;;;7.82;46.65;101687.78;10357609;28;20156;-58
2022/03/22 03:48:59;;;;;;;18.63;16.83;;;;;;;7.88;46.21;101690.13;10356175;28;20053;-60
2022/03/22 03:54:03;;;;;;;17.63;15.88;;;;;;;7.60;45.86;101675.50;10355928;28;20617;-61
2022/03/22 03:59:04;;;;;;;17.52;15.75;;;;;;;7.53;45.99;101688.16;10353978;28;20049;-59
2022/03/22 04:04:05;;;;;;;17.40;15.63;;;;;;;7.42;46.71;101687.78;10352797;28;20058;-60
2022/03/22 04:09:07;;;;;;;16.90;15.10;;;;;;;7.42;46.93;101691.28;10353330;28;20046;-59
2022/03/22 04:14:08;;;;;;;16.90;14.98;;;;;;;7.41;47.06;101692.22;10354369;28;20056;-60
2022/03/22 04:19:10;;;;;;;17.17;15.48;;;;;;;7.38;46.79;101694.16;10351033;28;20428;-60
2022/03/22 04:24:11;;;;;;;18.38;16.05;;;;;;;7.24;47.23;101692.13;10349648;28;20053;-59
2022/03/22 04:34:35;;;;;;;17.83;16.02;;;;;;;7.11;47.64;101691.75;10357362;28;20140;-59
2022/03/22 04:39:36;;;;;;;16.45;14.85;;;;;;;7.04;47.56;101687.66;10353756;28;20052;-60
2022/03/22 04:44:38;;;;;;;18.63;16.27;;;;;;;7.20;47.46;101695.81;10349455;28;20045;-60
2022/03/22 04:49:39;;;;;;;18.80;16.85;;;;;;;7.06;48.20;101702.56;10351663;28;20139;-63
2022/03/22 05:00:00;;;;;;;25.75;20.92;;;;;;;6.65;49.36;101721.03;10349009;28;20172;-60
2022/03/22 05:05:02;;;;;;;21.23;17.63;;;;;;;6.65;49.59;101714.88;10350505;28;20057;-60
2022/03/22 05:10:04;;;;;;;25.33;20.65;;;;;;;6.57;49.10;101711.69;10351209;28;20150;-60
2022/03/22 05:15:07;;;;;;;24.15;19.88;;;;;;;6.61;49.16;101719.44;10353724;28;20137;-59
2022/03/22 05:20:08;;;;;;;20.70;18.35;;;;;;;6.60;48.80;101712.41;10352339;28;20046;-59
2022/03/22 05:25:10;;;;;;;18.23;16.15;;;;;;;6.61;48.41;101726.53;10329618;28;21896;-60
2022/03/22 05:30:13;;;;;;;18.80;16.83;;;;;;;6.62;48.51;101731.75;10330454;28;20076;-60
2022/03/22 05:35:15;;;;;;;17.58;15.80;;;;;;;6.71;48.36;101725.19;10336909;28;20061;-61
2022/03/22 05:40:16;;;;;;;19.77;17.20;;;;;;;6.66;48.09;101714.81;10331630;28;20053;-61
2022/03/22 05:45:18;;;;;;;17.40;15.60;;;;;;;6.67;47.57;101713.03;10338230;28;20056;-60
2022/03/22 05:50:19;;;;;;;17.23;14.90;;;;;;;6.79;47.82;101719.63;10338181;28;20079;-61
2022/03/22 05:55:23;;;;;;;17.53;14.57;;;;;;;6.92;48.63;101739.38;10345039;28;20081;-61
2022/03/22 06:00:25;;;;;;;19.05;16.48;;;;;;;6.76;47.78;101722.38;10343550;28;20123;-59
2022/03/22 06:05:28;;;;;;;18.70;16.70;;;;;;;6.90;47.77;101744.72;10342351;28;20527;-60
2022/03/22 06:10:30;;;;;;;17.77;15.25;;;;;;;7.04;47.49;101746.78;10348535;28;20057;-57
2022/03/22 06:15:32;;;;;;;16.08;14.43;;;;;;;7.02;46.48;101745.97;10351016;28;20049;-60
2022/03/22 06:20:36;;;;;;;16.40;14.80;;;;;;;7.04;46.61;101748.56;10348665;28;20045;-59
2022/03/22 06:25:38;;;;;;;16.83;15.03;;;;;;;7.27;45.96;101744.94;10346049;28;20084;-61
2022/03/22 06:30:40;;;;;;;18.20;15.20;;;;;;;7.38;45.26;101736.53;10348347;28;20396;-62
2022/03/22 06:35:43;;;;;;;16.88;15.18;;;;;;;7.57;45.01;101745.41;10359115;28;20045;-62
2022/03/22 06:40:49;;;;;;;16.45;14.63;;;;;;;7.43;45.11;101703.63;10389282;28;20046;-59
2022/03/22 06:45:51;;;;;;;17.02;15.30;;;;;;;7.87;44.74;101750.25;10351586;28;20672;-60
2022/03/22 06:50:52;;;;;;;16.23;14.52;;;;;;;7.98;44.51;101736.50;10346214;28;20049;-59
2022/03/22 06:55:54;;;;;;;17.38;15.35;;;;;;;8.23;44.29;101756.59;10343041;28;20583;-59
2022/03/22 07:00:55;;;;;;;15.90;14.23;;;;;;;8.42;43.52;101752.16;10344945;28;20053;-59
2022/03/22 07:05:57;;;;;;;17.83;15.93;;;;;;;8.74;43.37;101755.06;10346414;28;20061;-60
2022/03/22 07:16:27;;;;;;;17.95;14.98;;;;;;;9.18;42.45;101753.78;10343837;28;20115;-59
2022/03/22 07:21:29;;;;;;;18.20;16.10;;;;;;;9.47;41.65;101762.94;10341113;28;20053;-60
2022/03/22 07:26:31;;;;;;;15.90;14.30;;;;;;;9.70;40.79;101753.75;10341022;28;20172;-59
2022/03/22 07:31:38;;;;;;;17.27;15.15;;;;;;;10.02;39.86;101758.28;10341051;28;20071;-59
2022/03/22 07:36:40;;;;;;;17.83;15.00;;;;;;;10.31;39.54;101753.16;10343113;28;20057;-61
2022/03/22 07:41:51;;;;;;;20.15;17.08;;;;;;;10.55;39.04;101759.84;10341576;28;20062;-59
2022/03/22 07:46:53;;;;;;;18.08;15.50;;;;;;;10.77;38.29;101762.09;10341889;28;20049;-59
2022/03/22 07:57:15;;;;;;;18.77;14.50;;;;;;;11.22;37.67;101764.00;10341668;28;20096;-60
2022/03/22 08:02:16;;;;;;;16.58;14.77;;;;;;;11.55;37.40;101760.28;10342257;28;20046;-61
2022/03/22 08:07:17;;;;;;;17.50;14.95;;;;;;;11.75;36.15;101764.38;10343231;28;20057;-60
2022/03/22 08:12:19;;;;;;;15.07;13.45;;;;;;;12.06;36.01;101768.69;10338847;28;20057;-60
2022/03/22 08:17:21;;;;;;;15.90;14.30;;;;;;;12.41;34.70;101768.25;10342048;28;20089;-59
2022/03/22 08:22:22;;;;;;;15.93;13.90;;;;;;;12.71;33.15;101764.56;10339217;28;20049;-58
2022/03/22 08:27:23;;;;;;;14.80;13.30;;;;;;;12.95;32.53;101762.09;10344771;28;20057;-59
2022/03/22 08:32:25;;;;;;;14.98;13.38;;;;;;;13.15;31.46;101762.56;10341888;28;21147;-62
2022/03/22 08:37:26;;;;;;;13.95;12.55;;;;;;;13.47;31.29;101765.75;10342959;28;20049;-61
2022/03/22 08:42:28;;;;;;;13.82;12.43;;;;;;;13.71;30.07;101748.97;10338762;28;20198;-61
2022/03/22 08:47:31;;;;;;;13.55;12.25;;;;;;;13.97;29.58;101756.00;10336736;28;20054;-60
2022/03/22 08:52:32;;;;;;;12.88;11.68;;;;;;;14.34;28.81;101755.19;10335845;28;20132;-59
2022/03/22 08:57:35;;;;;;;12.55;11.35;;;;;;;14.54;27.82;101753.72;10332689;28;21039;-60
2022/03/22 09:02:40;;;;;;;12.20;10.88;;;;;;;14.89;27.28;101739.56;10336173;28;20565;-61
2022/03/22 09:07:42;;;;;;;12.00;10.77;;;;;;;15.18;26.75;101745.41;10331563;28;20583;-61
2022/03/22 09:12:44;;;;;;;10.90;9.90;;;;;;;15.58;25.35;101745.97;10341016;28;20052;-59
2022/03/22 09:17:48;;;;;;;12.53;10.10;;;;;;;15.88;23.87;101746.28;10336030;28;20053;-60
2022/03/22 09:22:52;;;;;;;12.38;11.18;;;;;;;16.11;24.93;101740.91;10342969;28;20328;-61
2022/03/22 09:27:54;;;;;;;12.05;10.70;;;;;;;16.25;24.31;101748.69;10336922;28;20555;-62
2022/03/22 09:32:57;;;;;;;13.77;10.73;;;;;;;16.43;24.16;101735.59;10340250;28;20052;-61
2022/03/22 09:37:59;;;;;;;11.40;10.30;;;;;;;16.73;23.53;101706.31;10337450;28;20789;-62
2022/03/22 09:43:00;;;;;;;11.48;10.38;;;;;;;17.19;23.54;101732.03;10341812;28;20057;-60
2022/03/22 09:48:02;;;;;;;12.20;11.05;;;;;;;17.53;22.03;101737.19;10337961;28;21324;-60
2022/03/22 09:53:04;;;;;;;12.90;11.60;;;;;;;18.02;22.06;101719.47;10340251;28;20062;-60
2022/03/22 09:58:05;;;;;;;12.38;11.27;;;;;;;18.19;21.83;101730.56;10337329;28;20121;-61
2022/03/22 10:03:07;;;;;;;11.98;10.77;;;;;;;18.22;22.22;101732.16;10338017;28;20073;-61
2022/03/22 10:08:08;;;;;;;11.85;10.63;;;;;;;19.16;21.83;101726.28;10338996;28;20076;-60
2022/03/22 10:13:12;;;;;;;12.45;11.32;;;;;;;20.16;20.53;101722.13;10336039;28;20067;-60
2022/03/22 10:18:23;;;;;;;10.63;9.63;;;;;;;22.28;18.48;101720.38;10341191;28;20127;-60
2022/03/22 10:23:24;;;;;;;10.95;9.95;;;;;;;25.91;14.75;101704.13;10337336;28;20444;-59
2022/03/22 10:28:26;;;;;;;11.32;10.25;;;;;;;27.47;13.21;101698.16;10333032;28;20545;-59
2022/03/22 10:33:27;;;;;;;11.45;9.82;;;;;;;26.43;14.05;101695.94;10335019;28;20050;-60
2022/03/22 10:38:29;;;;;;;10.77;9.65;;;;;;;24.82;15.31;101695.53;10336816;28;20056;-60
2022/03/22 10:43:36;;;;;;;11.27;10.25;;;;;;;24.11;16.00;101695.63;10340136;28;20144;-61
2022/03/22 10:48:40;;;;;;;12.50;11.20;;;;;;;25.67;14.96;101697.09;10342921;28;20286;-61
2022/03/22 10:53:41;;;;;;;11.48;10.38;;;;;;;29.87;11.48;101687.75;10344690;28;20118;-61
2022/03/22 10:58:44;;;;;;;10.10;9.20;;;;;;;31.81;9.96;101669.72;10345472;28;20054;-63
2022/03/22 11:03:53;;;;;;;10.32;9.32;;;;;;;34.06;8.79;101676.28;10339591;28;20065;-61
2022/03/22 11:08:54;;;;;;;9.25;8.48;;;;;;;35.28;7.99;101647.38;10337935;28;20137;-61
2022/03/22 11:13:56;;;;;;;9.80;8.80;;;;;;;35.93;7.09;101665.09;10340756;28;20125;-60
2022/03/22 11:18:59;;;;;;;9.48;8.68;;;;;;;36.00;7.34;101660.19;10339929;28;20057;-65
2022/03/22 11:24:12;;;;;;;8.98;8.27;;;;;;;36.93;6.73;101656.34;10345529;28;20054;-60
2022/03/22 11:29:17;;;;;;;10.25;9.35;;;;;;;38.55;6.59;101646.31;10336187;28;20534;-60
2022/03/22 11:34:20;;;;;;;10.50;8.82;;;;;;;38.49;6.28;101644.66;10339044;28;20132;-62
2022/03/22 11:42:15;;;;;;;9.23;8.23;;;;;;;39.28;5.56;101631.19;10336852;28;20064;-61
2022/03/22 11:45:00;;;;;;;9.05;8.00;;;;;;;39.58;5.59;101635.81;10342692;28;20368;-59
2022/03/22 11:50:05;;;;;;;8.57;7.78;;;;;;;40.93;5.09;101621.72;10342520;28;20049;-60
2022/03/22 11:55:16;;;;;;;7.97;7.25;;;;;;;40.94;4.64;101620.56;10339462;28;20158;-62
2022/03/22 12:00:22;;;;;;;7.50;6.80;;;;;;;41.47;4.63;101617.72;10336296;28;20786;-62
2022/03/22 12:05:24;;;;;;;7.85;6.90;;;;;;;41.51;4.38;101589.97;10343535;28;20045;-61
2022/03/22 12:10:25;;;;;;;7.68;6.97;;;;;;;41.99;4.33;101594.59;10340166;28;20073;-62
2022/03/22 12:15:27;;;;;;;7.60;6.93;;;;;;;42.29;4.33;101587.66;10338903;28;20052;-61
2022/03/22 12:20:28;;;;;;;7.30;6.72;;;;;;;42.98;3.95;101575.75;10339666;28;20056;-61
2022/03/22 12:25:31;;;;;;;7.57;6.88;;;;;;;42.98;3.72;101577.72;10342572;28;20595;-61
2022/03/22 12:30:38;;;;;;;6.93;6.32;;;;;;;43.28;3.58;101565.03;10339898;28;20068;-61
2022/03/22 12:35:41;;;;;;;6.38;5.85;;;;;;;42.26;3.58;101573.47;10337642;28;20061;-62
2022/03/22 12:40:45;;;;;;;7.13;6.15;;;;;;;43.08;3.82;101557.94;10344551;28;20103;-61
2022/03/22 12:45:49;;;;;;;7.07;6.47;;;;;;;42.46;3.73;101547.94;10339315;28;20147;-61
2022/03/22 12:50:51;;;;;;;6.85;6.15;;;;;;;42.79;3.67;101539.47;10337346;28;20421;-62
2022/03/22 12:55:53;;;;;;;6.70;6.18;;;;;;;43.29;3.70;101507.06;10334120;28;20378;-62
2022/03/22 13:00:54;;;;;;;6.32;5.50;;;;;;;44.43;3.05;101523.56;10334967;28;20804;-61
2022/03/22 13:05:56;;;;;;;5.43;5.03;;;;;;;44.64;3.40;101521.00;10334881;28;20600;-62
2022/03/22 13:16:26;;;;;;;5.80;5.30;;;;;;;43.51;3.54;101512.72;10331708;28;20762;-61
2022/03/22 13:21:30;;;;;;;5.78;5.18;;;;;;;43.19;3.03;101500.53;10337317;28;20069;-63
2022/03/22 13:26:33;;;;;;;5.68;4.72;;;;;;;42.49;3.21;101504.50;10331360;28;20625;-63
2022/03/22 13:31:34;;;;;;;5.10;4.70;;;;;;;42.35;3.35;101496.09;10334824;28;20691;-63
2022/03/22 13:36:36;;;;;;;4.78;4.10;;;;;;;41.54;3.70;101493.56;10334633;28;20068;-63
2022/03/22 13:41:38;;;;;;;6.03;4.85;;;;;;;40.06;4.26;101478.34;10334172;28;20141;-63
2022/03/22 13:46:49;;;;;;;5.07;4.60;;;;;;;38.64;4.74;101486.13;10332639;28;20548;-65
2022/03/22 13:51:51;;;;;;;5.15;4.75;;;;;;;34.86;6.35;101464.25;10329461;28;20065;-64
2022/03/22 13:57:03;;;;;;;7.65;5.13;;;;;;;31.98;8.26;101464.25;10335727;28;20573;-62
2022/03/22 14:02:06;;;;;;;6.50;4.90;;;;;;;29.52;9.20;101468.63;10335995;28;20391;-66
2022/03/22 14:07:07;;;;;;;5.70;5.18;;;;;;;28.88;9.76;101466.56;10337156;28;20845;-60
2022/03/22 14:12:09;;;;;;;5.97;5.47;;;;;;;27.93;10.44;101438.66;10339867;28;20046;-60
2022/03/22 14:17:10;;;;;;;6.40;5.32;;;;;;;27.73;11.19;101463.25;10342286;28;20107;-61
2022/03/22 14:22:12;;;;;;;6.72;6.07;;;;;;;26.85;11.24;101456.63;10339338;28;20083;-59
2022/03/22 14:27:13;;;;;;;6.00;5.50;;;;;;;25.86;12.32;101442.03;10343739;28;23115;-60
2022/03/22 14:32:15;;;;;;;8.07;6.40;;;;;;;25.52;12.46;101445.47;10340585;28;20042;-59
2022/03/22 14:37:16;;;;;;;;;;;;;;;25.13;12.52;101441.22;10350968;28;20296;-60
2022/03/22 14:42:18;;;;;;;7.18;6.47;;;;;;;24.67;12.63;101439.59;10341784;28;19938;-60
2022/03/22 14:47:20;;;;;;;8.73;6.60;;;;;;;23.70;13.47;101426.69;10342075;28;20053;-62
2022/03/22 15:03:04;;;;;;;6.97;6.18;;;;;;;22.98;14.14;101417.75;10340588;28;20049;-60
2022/03/22 15:08:11;;;;;;;8.63;6.75;;;;;;;22.40;14.66;101417.97;10339863;28;20631;-61
2022/03/22 15:13:13;;;;;;;7.68;6.60;;;;;;;21.92;15.16;101426.97;10337345;28;20802;-59
2022/03/22 15:18:15;;;;;;;7.38;6.68;;;;;;;21.44;15.52;101407.78;10335129;28;20115;-62
2022/03/22 15:23:17;;;;;;;6.68;6.15;;;;;;;21.28;15.71;101408.63;10332490;28;20155;-60
2022/03/22 15:28:20;;;;;;;7.32;6.57;;;;;;;21.13;15.92;101401.13;10338647;28;20302;-61
2022/03/22 15:33:21;;;;;;;7.80;6.10;;;;;;;20.98;15.88;101394.66;10335224;28;20429;-60
2022/03/22 15:38:23;;;;;;;7.60;6.88;;;;;;;20.84;15.96;101388.84;10339768;28;20054;-61
2022/03/22 15:43:28;;;;;;;8.77;7.82;;;;;;;20.69;16.06;101398.59;10340488;28;20045;-61
2022/03/22 15:48:30;;;;;;;7.87;7.17;;;;;;;20.51;16.42;101400.50;10342306;28;20053;-60
2022/03/22 15:53:33;;;;;;;7.68;6.70;;;;;;;20.42;16.56;101354.50;10341717;28;20045;-61
2022/03/22 15:58:36;;;;;;;8.57;7.78;;;;;;;20.39;16.74;101395.38;10336361;28;20105;-61
2022/03/22 16:03:37;;;;;;;9.05;7.07;;;;;;;20.22;16.65;101393.56;10337470;28;20433;-62
2022/03/22 16:08:39;;;;;;;7.85;6.95;;;;;;;20.00;16.75;101374.19;10337522;28;20092;-62
2022/03/22 16:13:40;;;;;;;7.97;7.20;;;;;;;19.95;17.23;101388.16;10341839;28;20375;-59
2022/03/22 16:18:44;;;;;;;7.43;6.82;;;;;;;19.96;17.10;101386.31;10338522;28;20119;-61
2022/03/22 16:23:48;;;;;;;7.50;6.53;;;;;;;19.90;17.41;101386.94;10337596;28;20050;-61
2022/03/22 16:28:50;;;;;;;8.73;7.00;;;;;;;19.70;17.11;101386.25;10338681;28;20108;-61
2022/03/22 16:39:24;;;;;;;7.32;6.63;;;;;;;19.37;17.69;101376.00;10336883;28;20064;-61
2022/03/22 16:44:37;;;;;;;7.53;6.82;;;;;;;19.38;17.81;101388.50;10336720;28;20137;-61
2022/03/22 16:49:43;;;;;;;8.02;7.20;;;;;;;19.16;17.67;101383.53;10337507;28;20056;-59
2022/03/22 16:54:45;;;;;;;8.82;6.95;;;;;;;19.13;17.95;101391.94;10338758;28;20050;-59
2022/03/22 16:59:47;;;;;;;7.32;6.63;;;;;;;18.98;17.98;101397.84;10341897;28;20586;-59
2022/03/22 17:04:48;;;;;;;11.05;7.72;;;;;;;18.86;18.36;101394.50;10336763;28;20155;-59
2022/03/22 17:09:50;;;;;;;9.43;6.45;;;;;;;18.73;18.41;101400.22;10337287;28;20059;-61
2022/03/22 17:14:51;;;;;;;7.80;7.00;;;;;;;18.60;18.54;101407.81;10338947;28;20050;-59
2022/03/22 17:19:53;;;;;;;7.72;6.93;;;;;;;18.45;18.83;101402.03;10336180;28;20060;-60
2022/03/22 17:24:54;;;;;;;7.05;6.35;;;;;;;18.38;18.90;101404.44;10339972;28;20143;-61
2022/03/22 17:29:59;;;;;;;7.30;6.63;;;;;;;18.31;19.43;101405.19;10334578;28;20505;-61
2022/03/22 17:35:01;;;;;;;10.52;6.40;;;;;;;18.22;19.93;101416.84;10335951;28;20057;-61
2022/03/22 17:40:04;;;;;;;9.82;6.90;;;;;;;18.08;20.01;101408.22;10337250;28;20265;-61
2022/03/22 17:45:07;;;;;;;7.93;6.80;;;;;;;17.91;20.12;101399.03;10329424;28;20057;-59
2022/03/22 17:50:10;;;;;;;8.13;7.23;;;;;;;17.83;21.01;101412.31;10338480;28;20304;-60
2022/03/22 17:55:12;;;;;;;8.17;6.77;;;;;;;17.71;21.43;101421.56;10346969;28;20058;-61
2022/03/22 18:00:14;;;;;;;7.60;6.78;;;;;;;17.42;21.77;101415.16;10333762;28;20589;-59
2022/03/22 18:05:18;;;;;;;8.70;7.70;;;;;;;17.30;22.11;101430.56;10338723;28;20086;-60
2022/03/22 18:10:20;;;;;;;;;;;;;;;17.17;22.56;101442.59;10352069;28;20054;-60
2022/03/22 18:15:22;;;;;;;11.98;8.82;;;;;;;16.95;22.57;101429.22;10348246;28;19932;-60
2022/03/22 18:20:24;;;;;;;10.85;8.50;;;;;;;16.87;23.31;101447.00;10377965;28;20060;-61
2022/03/22 18:25:25;;;;;;;13.65;10.02;;;;;;;16.64;23.79;101431.03;10350042;28;20548;-62
2022/03/22 18:30:27;;;;;;;12.43;10.23;;;;;;;16.61;23.92;101442.06;10349598;28;20049;-61
2022/03/22 18:35:29;;;;;;;13.10;11.07;;;;;;;16.43;24.35;101450.72;10347447;28;20049;-61
2022/03/22 18:40:31;;;;;;;14.15;12.65;;;;;;;16.30;24.38;101454.63;10341632;28;20111;-61
2022/03/22 18:45:32;;;;;;;14.02;12.52;;;;;;;16.15;24.86;101459.47;10337789;28;20115;-62
2022/03/22 18:50:34;;;;;;;17.02;15.15;;;;;;;16.05;25.15;101467.47;10341807;28;25428;-60
2022/03/22 18:55:36;;;;;;;17.15;14.25;;;;;;;15.79;25.53;101440.94;10347200;28;20045;-61
2022/03/22 19:00:37;;;;;;;15.30;13.75;;;;;;;15.85;25.51;101475.38;10343948;28;20207;-61
2022/03/22 19:05:39;;;;;;;17.42;14.65;;;;;;;15.62;25.79;101455.75;10346363;28;20057;-61
2022/03/22 19:10:40;;;;;;;14.95;13.45;;;;;;;15.51;25.61;101459.31;10345737;28;20504;-61
2022/03/22 19:15:41;;;;;;;14.95;12.13;;;;;;;15.41;26.19;101442.28;10342044;28;20076;-61
2022/03/22 19:20:43;;;;;;;18.30;12.95;;;;;;;15.38;26.16;101475.56;10343519;28;20674;-61
2022/03/22 19:25:44;;;;;;;15.73;12.57;;;;;;;15.28;26.78;101468.41;10342240;28;21319;-61
2022/03/22 19:32:53;;;;;;;15.80;13.10;;;;;;;15.11;27.18;101467.94;10341219;28;20116;-60
2022/03/22 19:36:07;;;;;;;14.30;12.65;;;;;;;15.05;27.38;101473.78;10345520;28;20050;-62
2022/03/22 19:41:08;;;;;;;14.18;12.63;;;;;;;14.97;27.55;101476.25;10343971;28;20123;-61
2022/03/22 19:46:11;;;;;;;13.55;11.80;;;;;;;14.89;26.99;101468.78;10345673;28;21372;-61
2022/03/22 19:51:12;;;;;;;15.75;11.25;;;;;;;14.77;27.28;101465.28;10345963;28;20676;-60
2022/03/22 19:56:15;;;;;;;13.50;12.18;;;;;;;14.69;26.99;101467.69;10346116;28;20052;-60
2022/03/22 20:01:16;;;;;;;12.98;10.95;;;;;;;14.62;27.83;101479.88;10349128;28;20050;-65
2022/03/22 20:06:19;;;;;;;16.55;12.13;;;;;;;14.54;28.37;101479.59;10343378;28;20053;-61
2022/03/22 20:11:20;;;;;;;15.82;12.23;;;;;;;14.43;28.40;101477.75;10349000;28;20046;-60
2022/03/22 20:16:22;;;;;;;13.77;11.60;;;;;;;14.26;28.56;101471.00;10347380;28;20056;-62
2022/03/22 20:21:24;;;;;;;15.68;12.50;;;;;;;14.26;28.74;101484.38;10343285;28;20054;-61
2022/03/22 20:26:25;;;;;;;18.30;12.98;;;;;;;14.08;29.14;101481.28;10341870;28;20061;-60
2022/03/22 20:31:27;;;;;;;15.85;13.68;;;;;;;13.97;29.05;101476.75;10345819;28;20055;-60
2022/03/22 20:36:29;;;;;;;18.70;13.15;;;;;;;14.00;29.17;101487.22;10346043;28;20072;-61
2022/03/22 20:41:33;;;;;;;15.25;13.65;;;;;;;13.89;29.76;101489.88;10345519;28;20587;-60
2022/03/22 20:46:34;;;;;;;17.00;13.25;;;;;;;13.79;29.40;101495.88;10346747;28;20115;-62
2022/03/22 20:51:36;;;;;;;14.15;12.65;;;;;;;13.76;29.05;101495.28;10342065;28;20586;-62
2022/03/22 21:01:57;;;;;;;14.98;12.57;;;;;;;13.55;29.24;101487.00;10336123;28;20053;-62
2022/03/22 21:06:59;;;;;;;14.63;12.60;;;;;;;13.53;28.89;101491.63;10336046;28;20647;-62
2022/03/22 21:12:01;;;;;;;12.90;11.60;;;;;;;13.47;28.88;101492.94;10336533;28;20106;-59
2022/03/22 21:17:04;;;;;;;13.07;11.05;;;;;;;13.21;28.34;101462.69;10341290;28;20144;-61
2022/03/22 21:22:07;;;;;;;12.95;11.55;;;;;;;13.31;28.87;101493.16;10339484;28;20052;-64
2022/03/22 21:27:08;;;;;;;16.40;12.35;;;;;;;13.31;29.30;101506.53;10338464;28;20296;-64
2022/03/22 21:32:10;;;;;;;15.85;11.80;;;;;;;13.19;29.73;101504.72;10341298;28;20049;-63
2022/03/22 21:37:11;;;;;;;13.48;11.90;;;;;;;13.11;30.06;101513.31;10339866;28;20373;-64
2022/03/22 21:42:14;;;;;;;12.55;11.20;;;;;;;13.00;30.56;101492.69;10337602;28;20042;-64
2022/03/22 21:47:21;;;;;;;12.48;11.15;;;;;;;12.85;31.24;101494.63;10345091;28;20045;-62
2022/03/22 21:52:22;;;;;;;11.93;10.73;;;;;;;12.67;31.12;101499.44;10342211;28;20049;-61
2022/03/22 21:57:23;;;;;;;11.52;10.07;;;;;;;12.61;31.70;101507.88;10351143;28;20053;-60
2022/03/22 22:02:25;;;;;;;13.75;11.07;;;;;;;12.58;31.76;101502.75;10352450;28;20538;-61
2022/03/22 22:07:28;;;;;;;14.02;10.93;;;;;;;12.54;32.48;101501.25;10353140;28;20049;-62
2022/03/22 22:12:31;;;;;;;11.85;10.63;;;;;;;12.27;32.28;101478.16;10353037;28;20072;-60
2022/03/22 22:17:34;;;;;;;12.83;11.60;;;;;;;12.35;32.25;101499.81;10355953;28;20476;-60
2022/03/22 22:22:35;;;;;;;19.48;13.02;;;;;;;12.28;32.70;101490.53;10354528;28;20063;-62
2022/03/22 22:27:37;;;;;;;14.20;12.30;;;;;;;12.28;32.47;101497.69;10351127;28;20173;-62
2022/03/22 22:37:58;;;;;;;14.18;12.68;;;;;;;12.05;33.25;101499.25;10362083;28;20573;-61
2022/03/22 22:43:00;;;;;;;15.32;12.07;;;;;;;11.99;33.36;101498.72;10363020;28;20057;-61
2022/03/22 22:48:01;;;;;;;13.82;11.85;;;;;;;11.76;34.23;101484.19;10357582;28;20065;-61
2022/03/22 22:53:03;;;;;;;12.93;11.63;;;;;;;11.75;34.24;101495.78;10358070;28;20132;-61
2022/03/22 22:58:04;;;;;;;14.55;12.73;;;;;;;11.64;34.35;101495.66;10356970;28;20116;-61
2022/03/22 23:03:06;;;;;;;17.20;12.30;;;;;;;11.38;35.32;101481.34;10359667;28;20064;-60
2022/03/22 23:13:29;;;;;;;19.92;15.38;;;;;;;11.31;35.76;101489.72;10357128;28;20943;-61
2022/03/22 23:18:31;;;;;;;14.75;13.25;;;;;;;11.30;35.39;101497.81;10360169;28;20049;-61
2022/03/22 23:23:33;;;;;;;15.25;13.48;;;;;;;11.30;35.55;101492.50;10355951;28;20523;-61
2022/03/22 23:28:34;;;;;;;13.38;11.98;;;;;;;11.12;35.22;101489.19;10356558;28;20049;-61
2022/03/22 23:33:36;;;;;;;15.15;12.38;;;;;;;11.14;35.38;101505.97;10359540;28;20077;-61
2022/03/22 23:38:37;;;;;;;12.95;11.52;;;;;;;11.07;35.67;101492.16;10356281;28;20133;-60
2022/03/22 23:43:39;;;;;;;13.43;11.38;;;;;;;11.06;35.50;101492.25;10355443;28;20072;-62
2022/03/22 23:48:40;;;;;;;14.55;12.13;;;;;;;11.05;35.65;101494.06;10354930;28;20057;-60
2022/03/22 23:53:41;;;;;;;11.90;10.70;;;;;;;11.06;35.40;101486.91;10359527;28;20508;-59
2022/03/22 23:58:43;;;;;;;13.20;11.80;;;;;;;11.01;35.50;101468.56;10355078;28;20045;-60
